sensor_id;sensor_type;location;lat;lon;timestamp;pressure;altitude;pressure_sealevel;temperature;humidity
62072;BME280;48031;48.542;13.232;2023-06-24T00:00:05;98008.75;;;21.48;64.16
62072;BME280;48031;48.542;13.232;2023-06-24T00:04:08;98019.66;;;21.12;65.65
62072;BME280;48031;48.542;13.232;2023-06-24T00:08:11;98004.97;;;21.58;63.64
62072;BME280;48031;48.542;13.232;2023-06-24T00:12:13;98010.66;;;21.07;65.72
62072;BME280;48031;48.542;13.232;2023-06-24T00:16:21;98010.66;;;21.07;64.86
62072;BME280;48031;48.542;13.232;2023-06-24T00:20:29;98001.97;;;21.13;64.87
62072;BME280;48031;48.542;13.232;2023-06-24T00:24:31;98015.88;;;21.08;64.25
62072;BME280;48031;48.542;13.232;2023-06-24T00:28:33;98017.47;;;20.31;65.20
62072;BME280;48031;48.542;13.232;2023-06-24T00:32:35;98018.16;;;21.06;64.54
62072;BME280;48031;48.542;13.232;2023-06-24T00:36:38;98016.41;;;20.64;64.51
62072;BME280;48031;48.542;13.232;2023-06-24T00:40:41;98000.38;;;21.26;62.95
62072;BME280;48031;48.542;13.232;2023-06-24T00:44:43;97997.56;;;21.12;64.24
62072;BME280;48031;48.542;13.232;2023-06-24T00:48:46;98005.81;;;21.31;63.57
62072;BME280;48031;48.542;13.232;2023-06-24T00:52:48;98001.09;;;21.18;64.55
62072;BME280;48031;48.542;13.232;2023-06-24T00:56:51;97996.84;;;20.93;63.07
62072;BME280;48031;48.542;13.232;2023-06-24T01:00:55;98002.34;;;21.39;62.39
62072;BME280;48031;48.542;13.232;2023-06-24T01:05:00;97994.41;;;21.74;61.21
62072;BME280;48031;48.542;13.232;2023-06-24T01:09:03;97999.34;;;21.36;61.13
62072;BME280;48031;48.542;13.232;2023-06-24T01:13:07;97984.81;;;21.57;61.56
62072;BME280;48031;48.542;13.232;2023-06-24T01:17:13;97989.91;;;21.64;61.10
62072;BME280;48031;48.542;13.232;2023-06-24T01:21:33;97985.03;;;21.47;61.59
62072;BME280;48031;48.542;13.232;2023-06-24T01:30:28;97994.59;;;22.05;61.45
62072;BME280;48031;48.542;13.232;2023-06-24T01:34:57;97995.91;;;22.29;60.46
62072;BME280;48031;48.542;13.232;2023-06-24T01:39:07;97995.44;;;21.64;60.77
62072;BME280;48031;48.542;13.232;2023-06-24T01:43:11;97996.03;;;22.69;59.40
62072;BME280;48031;48.542;13.232;2023-06-24T01:47:23;97982.91;;;22.52;59.05
62072;BME280;48031;48.542;13.232;2023-06-24T01:51:31;97993.91;;;22.21;59.65
62072;BME280;48031;48.542;13.232;2023-06-24T01:55:35;98005.53;;;22.32;58.71
62072;BME280;48031;48.542;13.232;2023-06-24T01:59:42;97999.63;;;22.69;57.35
62072;BME280;48031;48.542;13.232;2023-06-24T02:03:47;98004.56;;;22.14;58.69
62072;BME280;48031;48.542;13.232;2023-06-24T02:07:51;98010.38;;;22.49;57.83
62072;BME280;48031;48.542;13.232;2023-06-24T02:11:56;98006.53;;;22.72;56.86
62072;BME280;48031;48.542;13.232;2023-06-24T02:16:00;98011.59;;;22.56;56.58
62072;BME280;48031;48.542;13.232;2023-06-24T02:20:06;98013.16;;;22.71;57.05
62072;BME280;48031;48.542;13.232;2023-06-24T02:24:11;98017.97;;;22.79;56.13
62072;BME280;48031;48.542;13.232;2023-06-24T02:28:14;98027.84;;;22.58;57.34
62072;BME280;48031;48.542;13.232;2023-06-24T02:32:17;98022.09;;;22.46;56.35
62072;BME280;48031;48.542;13.232;2023-06-24T02:36:20;98021.84;;;22.56;56.67
62072;BME280;48031;48.542;13.232;2023-06-24T02:40:22;98032.22;;;22.14;56.90
62072;BME280;48031;48.542;13.232;2023-06-24T02:44:24;98031.88;;;22.52;56.87
62072;BME280;48031;48.542;13.232;2023-06-24T02:48:28;98034.97;;;22.50;57.33
62072;BME280;48031;48.542;13.232;2023-06-24T02:52:33;98034.91;;;22.64;57.27
62072;BME280;48031;48.542;13.232;2023-06-24T02:56:36;98047.00;;;22.68;56.95
62072;BME280;48031;48.542;13.232;2023-06-24T03:00:51;98050.97;;;22.75;56.03
62072;BME280;48031;48.542;13.232;2023-06-24T03:05:06;98064.75;;;22.89;56.36
62072;BME280;48031;48.542;13.232;2023-06-24T03:09:09;98067.28;;;22.77;55.30
62072;BME280;48031;48.542;13.232;2023-06-24T03:13:11;98080.44;;;22.71;56.28
62072;BME280;48031;48.542;13.232;2023-06-24T03:17:20;98072.88;;;23.39;54.36
62072;BME280;48031;48.542;13.232;2023-06-24T03:21:22;98081.50;;;22.84;57.00
62072;BME280;48031;48.542;13.232;2023-06-24T03:25:38;98078.72;;;23.06;55.02
62072;BME280;48031;48.542;13.232;2023-06-24T03:29:40;98085.13;;;22.93;55.87
62072;BME280;48031;48.542;13.232;2023-06-24T03:33:46;98078.66;;;23.51;54.07
62072;BME280;48031;48.542;13.232;2023-06-24T03:37:50;98079.69;;;23.33;54.26
62072;BME280;48031;48.542;13.232;2023-06-24T03:41:52;98077.41;;;23.35;54.64
62072;BME280;48031;48.542;13.232;2023-06-24T03:45:54;98080.50;;;23.33;54.13
62072;BME280;48031;48.542;13.232;2023-06-24T03:49:57;98082.22;;;23.20;55.70
62072;BME280;48031;48.542;13.232;2023-06-24T03:53:58;98083.69;;;23.18;55.34
62072;BME280;48031;48.542;13.232;2023-06-24T03:58:01;98079.13;;;22.55;55.93
62072;BME280;48031;48.542;13.232;2023-06-24T04:02:05;98095.66;;;22.47;56.04
62072;BME280;48031;48.542;13.232;2023-06-24T04:06:10;98098.78;;;22.31;57.23
62072;BME280;48031;48.542;13.232;2023-06-24T04:10:12;98107.34;;;23.02;54.43
62072;BME280;48031;48.542;13.232;2023-06-24T04:14:14;98117.63;;;22.65;56.55
62072;BME280;48031;48.542;13.232;2023-06-24T04:18:18;98113.09;;;23.05;56.01
62072;BME280;48031;48.542;13.232;2023-06-24T04:22:20;98113.94;;;23.14;56.23
62072;BME280;48031;48.542;13.232;2023-06-24T04:26:23;98114.59;;;23.11;55.32
62072;BME280;48031;48.542;13.232;2023-06-24T04:30:25;98122.38;;;22.87;55.76
62072;BME280;48031;48.542;13.232;2023-06-24T04:34:27;98130.13;;;22.99;56.10
62072;BME280;48031;48.542;13.232;2023-06-24T04:38:29;98136.66;;;22.45;57.56
62072;BME280;48031;48.542;13.232;2023-06-24T04:42:35;98128.00;;;22.73;56.70
62072;BME280;48031;48.542;13.232;2023-06-24T04:46:37;98128.69;;;23.01;56.20
62072;BME280;48031;48.542;13.232;2023-06-24T04:50:39;98123.44;;;23.22;54.97
62072;BME280;48031;48.542;13.232;2023-06-24T04:54:43;98138.88;;;23.14;56.14
62072;BME280;48031;48.542;13.232;2023-06-24T04:58:45;98143.72;;;23.53;55.06
62072;BME280;48031;48.542;13.232;2023-06-24T05:02:46;98145.22;;;23.59;54.16
62072;BME280;48031;48.542;13.232;2023-06-24T05:06:48;98149.31;;;23.62;54.05
62072;BME280;48031;48.542;13.232;2023-06-24T05:10:50;98148.25;;;23.27;54.85
62072;BME280;48031;48.542;13.232;2023-06-24T05:14:52;98157.50;;;23.45;53.61
62072;BME280;48031;48.542;13.232;2023-06-24T05:18:54;98158.91;;;23.34;54.86
62072;BME280;48031;48.542;13.232;2023-06-24T05:22:56;98158.38;;;23.85;53.39
62072;BME280;48031;48.542;13.232;2023-06-24T05:27:03;98162.22;;;23.75;54.17
62072;BME280;48031;48.542;13.232;2023-06-24T05:31:06;98152.09;;;23.62;53.61
62072;BME280;48031;48.542;13.232;2023-06-24T05:35:08;98164.38;;;23.78;54.06
62072;BME280;48031;48.542;13.232;2023-06-24T05:39:10;98175.44;;;24.09;53.14
62072;BME280;48031;48.542;13.232;2023-06-24T05:43:13;98175.56;;;24.43;54.29
62072;BME280;48031;48.542;13.232;2023-06-24T05:47:14;98175.19;;;23.57;54.73
62072;BME280;48031;48.542;13.232;2023-06-24T05:51:16;98178.50;;;24.47;53.68
62072;BME280;48031;48.542;13.232;2023-06-24T05:55:18;98169.97;;;24.26;53.93
62072;BME280;48031;48.542;13.232;2023-06-24T05:59:20;98186.47;;;24.23;55.35
62072;BME280;48031;48.542;13.232;2023-06-24T06:03:22;98181.38;;;25.07;51.85
62072;BME280;48031;48.542;13.232;2023-06-24T06:07:24;98180.41;;;24.95;52.45
62072;BME280;48031;48.542;13.232;2023-06-24T06:11:26;98175.47;;;25.35;52.11
62072;BME280;48031;48.542;13.232;2023-06-24T06:15:28;98175.59;;;26.11;50.27
62072;BME280;48031;48.542;13.232;2023-06-24T06:19:30;98183.81;;;25.17;52.57
62072;BME280;48031;48.542;13.232;2023-06-24T06:23:32;98179.38;;;25.25;51.10
62072;BME280;48031;48.542;13.232;2023-06-24T06:27:33;98196.88;;;24.91;51.83
62072;BME280;48031;48.542;13.232;2023-06-24T06:31:35;98197.69;;;23.87;54.32
62072;BME280;48031;48.542;13.232;2023-06-24T06:35:37;98193.22;;;24.65;53.15
62072;BME280;48031;48.542;13.232;2023-06-24T06:39:39;98193.25;;;25.59;50.35
62072;BME280;48031;48.542;13.232;2023-06-24T06:43:41;98196.41;;;25.06;50.80
62072;BME280;48031;48.542;13.232;2023-06-24T06:47:43;98197.88;;;25.30;51.90
62072;BME280;48031;48.542;13.232;2023-06-24T06:51:45;98201.53;;;24.39;52.39
62072;BME280;48031;48.542;13.232;2023-06-24T06:55:47;98204.78;;;25.96;49.43
62072;BME280;48031;48.542;13.232;2023-06-24T06:59:50;98202.41;;;26.15;50.03
62072;BME280;48031;48.542;13.232;2023-06-24T07:03:52;98206.19;;;26.11;49.25
62072;BME280;48031;48.542;13.232;2023-06-24T07:07:54;98211.91;;;26.14;49.25
62072;BME280;48031;48.542;13.232;2023-06-24T07:11:56;98213.69;;;26.27;48.79
62072;BME280;48031;48.542;13.232;2023-06-24T07:15:58;98215.47;;;25.85;49.63
62072;BME280;48031;48.542;13.232;2023-06-24T07:20:00;98211.34;;;26.38;48.59
62072;BME280;48031;48.542;13.232;2023-06-24T07:24:02;98214.91;;;26.00;49.35
62072;BME280;48031;48.542;13.232;2023-06-24T07:28:04;98218.06;;;25.90;49.52
62072;BME280;48031;48.542;13.232;2023-06-24T07:32:06;98216.91;;;26.38;48.04
62072;BME280;48031;48.542;13.232;2023-06-24T07:36:09;98216.28;;;25.77;49.13
62072;BME280;48031;48.542;13.232;2023-06-24T07:40:12;98216.31;;;25.51;49.48
62072;BME280;48031;48.542;13.232;2023-06-24T07:44:14;98218.81;;;26.75;47.53
62072;BME280;48031;48.542;13.232;2023-06-24T07:48:16;98209.81;;;28.06;44.37
62072;BME280;48031;48.542;13.232;2023-06-24T07:52:18;98213.91;;;26.52;47.55
62072;BME280;48031;48.542;13.232;2023-06-24T07:56:20;98206.31;;;27.97;44.58
62072;BME280;48031;48.542;13.232;2023-06-24T08:00:21;98211.03;;;28.42;43.85
62072;BME280;48031;48.542;13.232;2023-06-24T08:04:23;98217.03;;;27.00;45.80
62072;BME280;48031;48.542;13.232;2023-06-24T08:08:25;98206.94;;;28.88;44.07
62072;BME280;48031;48.542;13.232;2023-06-24T08:12:27;98202.41;;;28.35;44.49
62072;BME280;48031;48.542;13.232;2023-06-24T08:16:29;98222.16;;;26.69;46.47
62072;BME280;48031;48.542;13.232;2023-06-24T08:20:31;98216.47;;;28.14;43.20
62072;BME280;48031;48.542;13.232;2023-06-24T08:24:33;98208.06;;;28.02;41.96
62072;BME280;48031;48.542;13.232;2023-06-24T08:28:35;98213.63;;;27.57;42.21
62072;BME280;48031;48.542;13.232;2023-06-24T08:32:37;98213.47;;;28.43;41.31
62072;BME280;48031;48.542;13.232;2023-06-24T08:36:39;98208.69;;;29.32;39.74
62072;BME280;48031;48.542;13.232;2023-06-24T08:40:41;98205.09;;;29.32;38.25
62072;BME280;48031;48.542;13.232;2023-06-24T08:44:45;98205.47;;;30.02;38.00
62072;BME280;48031;48.542;13.232;2023-06-24T08:48:48;98200.75;;;29.90;38.52
62072;BME280;48031;48.542;13.232;2023-06-24T08:52:51;98205.72;;;29.53;38.36
62072;BME280;48031;48.542;13.232;2023-06-24T08:56:56;98198.59;;;30.15;37.36
62072;BME280;48031;48.542;13.232;2023-06-24T09:00:58;98203.53;;;28.70;39.34
62072;BME280;48031;48.542;13.232;2023-06-24T09:05:00;98200.91;;;28.74;38.96
62072;BME280;48031;48.542;13.232;2023-06-24T09:09:03;98194.72;;;29.32;38.44
62072;BME280;48031;48.542;13.232;2023-06-24T09:13:06;98192.66;;;29.73;38.70
62072;BME280;48031;48.542;13.232;2023-06-24T09:17:08;98185.72;;;30.77;35.91
62072;BME280;48031;48.542;13.232;2023-06-24T09:21:11;98203.00;;;29.57;36.27
62072;BME280;48031;48.542;13.232;2023-06-24T09:25:17;98199.72;;;28.14;38.91
62072;BME280;48031;48.542;13.232;2023-06-24T09:29:25;98194.09;;;28.87;38.31
62072;BME280;48031;48.542;13.232;2023-06-24T09:33:31;98199.72;;;29.83;36.56
62072;BME280;48031;48.542;13.232;2023-06-24T09:37:33;98185.53;;;29.75;35.34
62072;BME280;48031;48.542;13.232;2023-06-24T09:41:35;98182.66;;;29.88;35.68
62072;BME280;48031;48.542;13.232;2023-06-24T09:45:38;98178.06;;;31.09;35.81
62072;BME280;48031;48.542;13.232;2023-06-24T09:49:40;98187.63;;;31.85;32.93
62072;BME280;48031;48.542;13.232;2023-06-24T09:53:42;98191.63;;;29.93;35.39
62072;BME280;48031;48.542;13.232;2023-06-24T09:57:46;98172.44;;;33.40;32.38
62072;BME280;48031;48.542;13.232;2023-06-24T10:01:52;98166.75;;;34.51;30.32
62072;BME280;48031;48.542;13.232;2023-06-24T10:05:55;98178.00;;;30.54;34.52
62072;BME280;48031;48.542;13.232;2023-06-24T10:09:57;98166.47;;;32.85;31.78
62072;BME280;48031;48.542;13.232;2023-06-24T10:13:59;98177.41;;;31.54;32.43
62072;BME280;48031;48.542;13.232;2023-06-24T10:18:02;98172.88;;;29.66;34.96
62072;BME280;48031;48.542;13.232;2023-06-24T10:22:16;98155.63;;;32.35;31.60
62072;BME280;48031;48.542;13.232;2023-06-24T10:26:25;98154.47;;;32.13;32.05
62072;BME280;48031;48.542;13.232;2023-06-24T10:30:27;98170.13;;;30.60;34.86
62072;BME280;48031;48.542;13.232;2023-06-24T10:34:34;98159.28;;;31.51;33.13
62072;BME280;48031;48.542;13.232;2023-06-24T10:38:37;98144.75;;;35.43;27.54
62072;BME280;48031;48.542;13.232;2023-06-24T10:42:41;98129.75;;;35.25;26.21
62072;BME280;48031;48.542;13.232;2023-06-24T10:46:53;98130.53;;;33.31;28.97
62072;BME280;48031;48.542;13.232;2023-06-24T10:50:55;98134.69;;;29.58;34.67
62072;BME280;48031;48.542;13.232;2023-06-24T10:54:58;98129.75;;;34.12;29.51
62072;BME280;48031;48.542;13.232;2023-06-24T10:59:00;98111.09;;;38.16;24.02
62072;BME280;48031;48.542;13.232;2023-06-24T11:07:11;98107.34;;;35.99;24.49
62072;BME280;48031;48.542;13.232;2023-06-24T11:11:19;98107.72;;;36.79;24.57
62072;BME280;48031;48.542;13.232;2023-06-24T11:15:22;98110.56;;;32.80;26.98
62072;BME280;48031;48.542;13.232;2023-06-24T11:19:24;98091.59;;;37.67;20.57
62072;BME280;48031;48.542;13.232;2023-06-24T11:23:26;98081.22;;;48.46;11.45
62072;BME280;48031;48.542;13.232;2023-06-24T11:27:29;98082.56;;;49.37;11.47
62072;BME280;48031;48.542;13.232;2023-06-24T11:31:31;98079.06;;;47.48;12.97
62072;BME280;48031;48.542;13.232;2023-06-24T11:35:34;98073.09;;;49.07;10.23
62072;BME280;48031;48.542;13.232;2023-06-24T11:39:38;98069.00;;;46.34;13.38
62072;BME280;48031;48.542;13.232;2023-06-24T11:43:47;98063.31;;;46.12;12.72
62072;BME280;48031;48.542;13.232;2023-06-24T11:47:49;98071.03;;;45.32;12.41
62072;BME280;48031;48.542;13.232;2023-06-24T11:51:51;98051.38;;;54.23;7.95
62072;BME280;48031;48.542;13.232;2023-06-24T11:55:56;98054.50;;;38.81;17.67
62072;BME280;48031;48.542;13.232;2023-06-24T11:59:58;98036.06;;;42.65;15.71
62072;BME280;48031;48.542;13.232;2023-06-24T12:04:00;98028.22;;;47.45;10.89
62072;BME280;48031;48.542;13.232;2023-06-24T12:08:06;98031.06;;;53.23;8.09
62072;BME280;48031;48.542;13.232;2023-06-24T12:12:09;98027.38;;;53.94;7.27
62072;BME280;48031;48.542;13.232;2023-06-24T12:16:11;98009.09;;;52.34;6.88
62072;BME280;48031;48.542;13.232;2023-06-24T12:20:14;98001.38;;;45.22;11.75
62072;BME280;48031;48.542;13.232;2023-06-24T12:24:16;98006.41;;;51.51;7.95
62072;BME280;48031;48.542;13.232;2023-06-24T12:28:17;98003.53;;;51.00;8.11
62072;BME280;48031;48.542;13.232;2023-06-24T12:32:19;97995.91;;;55.20;6.33
62072;BME280;48031;48.542;13.232;2023-06-24T12:36:22;97989.63;;;47.93;9.36
62072;BME280;48031;48.542;13.232;2023-06-24T12:40:24;97982.66;;;52.16;7.42
62072;BME280;48031;48.542;13.232;2023-06-24T12:44:25;97979.00;;;50.69;8.24
62072;BME280;48031;48.542;13.232;2023-06-24T12:48:28;97981.75;;;56.81;5.63
62072;BME280;48031;48.542;13.232;2023-06-24T12:52:31;97973.88;;;57.45;5.13
62072;BME280;48031;48.542;13.232;2023-06-24T12:56:33;97969.91;;;58.53;5.03
62072;BME280;48031;48.542;13.232;2023-06-24T13:00:35;97963.22;;;53.37;6.20
62072;BME280;48031;48.542;13.232;2023-06-24T13:04:37;97960.84;;;53.24;6.26
62072;BME280;48031;48.542;13.232;2023-06-24T13:08:40;97956.13;;;56.12;6.15
62072;BME280;48031;48.542;13.232;2023-06-24T13:12:41;97947.41;;;54.92;5.63
62072;BME280;48031;48.542;13.232;2023-06-24T13:16:44;97947.53;;;57.00;4.28
62072;BME280;48031;48.542;13.232;2023-06-24T13:20:46;97936.50;;;52.12;6.56
62072;BME280;48031;48.542;13.232;2023-06-24T13:24:48;97942.13;;;57.04;4.61
62072;BME280;48031;48.542;13.232;2023-06-24T13:28:50;97940.44;;;57.27;4.94
62072;BME280;48031;48.542;13.232;2023-06-24T13:32:52;97936.16;;;51.20;7.95
62072;BME280;48031;48.542;13.232;2023-06-24T13:36:54;97926.44;;;53.95;7.31
62072;BME280;48031;48.542;13.232;2023-06-24T13:40:56;97927.56;;;53.03;6.09
62072;BME280;48031;48.542;13.232;2023-06-24T13:44:58;97927.78;;;52.66;7.24
62072;BME280;48031;48.542;13.232;2023-06-24T13:49:01;97917.53;;;54.86;6.37
62072;BME280;48031;48.542;13.232;2023-06-24T13:53:07;97921.16;;;56.12;5.38
62072;BME280;48031;48.542;13.232;2023-06-24T13:57:09;97913.31;;;49.19;9.67
62072;BME280;48031;48.542;13.232;2023-06-24T14:01:11;97906.50;;;55.93;5.40
62072;BME280;48031;48.542;13.232;2023-06-24T14:05:13;97900.38;;;52.08;7.22
62072;BME280;48031;48.542;13.232;2023-06-24T14:09:15;97906.66;;;52.60;7.04
62072;BME280;48031;48.542;13.232;2023-06-24T14:13:17;97902.59;;;55.06;5.58
62072;BME280;48031;48.542;13.232;2023-06-24T14:17:19;97888.63;;;54.12;6.03
62072;BME280;48031;48.542;13.232;2023-06-24T14:21:22;97881.38;;;52.66;7.25
62072;BME280;48031;48.542;13.232;2023-06-24T14:25:24;97878.00;;;49.59;8.15
62072;BME280;48031;48.542;13.232;2023-06-24T14:29:26;97860.94;;;55.71;4.92
62072;BME280;48031;48.542;13.232;2023-06-24T14:33:28;97867.50;;;46.96;9.41
62072;BME280;48031;48.542;13.232;2023-06-24T14:37:30;97859.53;;;47.80;8.85
62072;BME280;48031;48.542;13.232;2023-06-24T14:41:32;97854.38;;;50.67;7.53
62072;BME280;48031;48.542;13.232;2023-06-24T14:45:34;97860.91;;;48.62;8.41
62072;BME280;48031;48.542;13.232;2023-06-24T14:49:36;97851.56;;;42.55;14.55
62072;BME280;48031;48.542;13.232;2023-06-24T14:53:38;97848.47;;;39.33;15.66
62072;BME280;48031;48.542;13.232;2023-06-24T14:57:43;97846.66;;;36.57;18.55
62072;BME280;48031;48.542;13.232;2023-06-24T15:01:45;97846.22;;;37.69;18.01
62072;BME280;48031;48.542;13.232;2023-06-24T15:05:47;97836.94;;;35.29;21.02
62072;BME280;48031;48.542;13.232;2023-06-24T15:09:49;97829.72;;;37.16;19.75
62072;BME280;48031;48.542;13.232;2023-06-24T15:13:51;97834.47;;;35.56;21.80
62072;BME280;48031;48.542;13.232;2023-06-24T15:17:53;97827.59;;;34.64;21.34
62072;BME280;48031;48.542;13.232;2023-06-24T15:21:56;97825.25;;;35.30;21.36
62072;BME280;48031;48.542;13.232;2023-06-24T15:25:58;97822.41;;;35.37;21.62
62072;BME280;48031;48.542;13.232;2023-06-24T15:30:00;97822.31;;;35.87;21.62
62072;BME280;48031;48.542;13.232;2023-06-24T15:34:02;97815.34;;;36.89;21.60
62072;BME280;48031;48.542;13.232;2023-06-24T15:38:05;97817.97;;;35.15;21.37
62072;BME280;48031;48.542;13.232;2023-06-24T15:42:07;97812.44;;;37.00;20.93
62072;BME280;48031;48.542;13.232;2023-06-24T15:46:09;97809.84;;;34.53;21.93
62072;BME280;48031;48.542;13.232;2023-06-24T15:50:11;97805.84;;;35.11;21.86
62072;BME280;48031;48.542;13.232;2023-06-24T15:54:13;97809.13;;;35.24;21.55
62072;BME280;48031;48.542;13.232;2023-06-24T15:58:15;97807.88;;;35.14;21.57
62072;BME280;48031;48.542;13.232;2023-06-24T16:02:18;97797.34;;;34.61;21.62
62072;BME280;48031;48.542;13.232;2023-06-24T16:06:21;97795.34;;;34.55;22.34
62072;BME280;48031;48.542;13.232;2023-06-24T16:10:24;97798.72;;;33.81;23.51
62072;BME280;48031;48.542;13.232;2023-06-24T16:14:26;97792.50;;;34.48;21.90
62072;BME280;48031;48.542;13.232;2023-06-24T16:18:29;97787.16;;;34.14;22.01
62072;BME280;48031;48.542;13.232;2023-06-24T16:22:31;97788.00;;;34.22;22.51
62072;BME280;48031;48.542;13.232;2023-06-24T16:26:33;97789.13;;;33.27;23.80
62072;BME280;48031;48.542;13.232;2023-06-24T16:30:52;97779.84;;;33.96;22.35
62072;BME280;48031;48.542;13.232;2023-06-24T16:34:55;97778.94;;;32.65;24.43
62072;BME280;48031;48.542;13.232;2023-06-24T16:38:57;97775.00;;;33.89;22.24
62072;BME280;48031;48.542;13.232;2023-06-24T16:42:59;97775.38;;;36.84;18.34
62072;BME280;48031;48.542;13.232;2023-06-24T16:47:01;97763.44;;;39.23;17.15
62072;BME280;48031;48.542;13.232;2023-06-24T16:51:03;97767.31;;;41.03;14.65
62072;BME280;48031;48.542;13.232;2023-06-24T16:55:05;97771.09;;;37.88;16.80
62072;BME280;48031;48.542;13.232;2023-06-24T16:59:07;97770.78;;;38.43;17.50
62072;BME280;48031;48.542;13.232;2023-06-24T17:03:09;97768.50;;;33.74;22.35
62072;BME280;48031;48.542;13.232;2023-06-24T17:07:11;97767.09;;;34.30;21.75
62072;BME280;48031;48.542;13.232;2023-06-24T17:11:16;97760.88;;;33.17;22.90
62072;BME280;48031;48.542;13.232;2023-06-24T17:15:18;97762.78;;;33.67;22.84
62072;BME280;48031;48.542;13.232;2023-06-24T17:19:20;97760.50;;;32.67;24.28
62072;BME280;48031;48.542;13.232;2023-06-24T17:23:22;97767.38;;;33.21;24.22
62072;BME280;48031;48.542;13.232;2023-06-24T17:27:25;97757.19;;;31.84;25.30
62072;BME280;48031;48.542;13.232;2023-06-24T17:31:27;97751.00;;;32.05;25.38
62072;BME280;48031;48.542;13.232;2023-06-24T17:35:29;97749.19;;;31.26;26.93
62072;BME280;48031;48.542;13.232;2023-06-24T17:39:31;97744.44;;;31.30;25.99
62072;BME280;48031;48.542;13.232;2023-06-24T17:43:33;97732.94;;;32.02;26.21
62072;BME280;48031;48.542;13.232;2023-06-24T17:47:36;97745.28;;;30.82;27.37
62072;BME280;48031;48.542;13.232;2023-06-24T17:51:38;97743.38;;;31.12;26.77
62072;BME280;48031;48.542;13.232;2023-06-24T17:55:40;97742.59;;;30.43;27.88
62072;BME280;48031;48.542;13.232;2023-06-24T17:59:42;97743.03;;;30.91;28.39
62072;BME280;48031;48.542;13.232;2023-06-24T18:03:44;97745.66;;;29.93;29.87
62072;BME280;48031;48.542;13.232;2023-06-24T18:07:48;97752.75;;;30.48;29.35
62072;BME280;48031;48.542;13.232;2023-06-24T18:11:51;97740.03;;;30.12;29.84
62072;BME280;48031;48.542;13.232;2023-06-24T18:15:53;97736.47;;;31.06;29.74
62072;BME280;48031;48.542;13.232;2023-06-24T18:19:55;97742.38;;;31.27;29.80
62072;BME280;48031;48.542;13.232;2023-06-24T18:23:57;97740.75;;;31.00;30.11
62072;BME280;48031;48.542;13.232;2023-06-24T18:27:59;97739.44;;;30.68;30.72
62072;BME280;48031;48.542;13.232;2023-06-24T18:32:02;97740.88;;;30.35;30.43
62072;BME280;48031;48.542;13.232;2023-06-24T18:36:04;97736.91;;;30.36;30.95
62072;BME280;48031;48.542;13.232;2023-06-24T18:40:06;97735.13;;;30.05;32.86
62072;BME280;48031;48.542;13.232;2023-06-24T18:44:08;97735.97;;;30.09;32.05
62072;BME280;48031;48.542;13.232;2023-06-24T18:48:11;97740.97;;;29.58;33.29
62072;BME280;48031;48.542;13.232;2023-06-24T18:52:13;97729.31;;;29.56;33.51
62072;BME280;48031;48.542;13.232;2023-06-24T18:56:15;97733.06;;;29.45;34.23
62072;BME280;48031;48.542;13.232;2023-06-24T19:00:17;97739.81;;;28.89;34.89
62072;BME280;48031;48.542;13.232;2023-06-24T19:04:19;97742.69;;;28.62;35.74
62072;BME280;48031;48.542;13.232;2023-06-24T19:08:21;97741.00;;;28.57;36.40
62072;BME280;48031;48.542;13.232;2023-06-24T19:12:23;97750.53;;;28.40;36.74
62072;BME280;48031;48.542;13.232;2023-06-24T19:16:25;97737.88;;;27.31;36.65
62072;BME280;48031;48.542;13.232;2023-06-24T19:20:28;97737.53;;;27.73;36.56
62072;BME280;48031;48.542;13.232;2023-06-24T19:24:30;97744.63;;;27.70;37.25
62072;BME280;48031;48.542;13.232;2023-06-24T19:28:32;97747.22;;;27.23;38.26
62072;BME280;48031;48.542;13.232;2023-06-24T19:32:34;97745.16;;;26.72;39.73
62072;BME280;48031;48.542;13.232;2023-06-24T19:36:36;97739.28;;;27.25;37.50
62072;BME280;48031;48.542;13.232;2023-06-24T19:40:38;97752.59;;;26.80;39.06
62072;BME280;48031;48.542;13.232;2023-06-24T19:44:40;97753.97;;;26.62;39.10
62072;BME280;48031;48.542;13.232;2023-06-24T19:48:42;97753.84;;;26.82;39.20
62072;BME280;48031;48.542;13.232;2023-06-24T19:52:44;97759.88;;;26.48;40.73
62072;BME280;48031;48.542;13.232;2023-06-24T19:56:46;97760.47;;;26.78;39.66
62072;BME280;48031;48.542;13.232;2023-06-24T20:00:47;97752.25;;;26.69;40.09
62072;BME280;48031;48.542;13.232;2023-06-24T20:04:49;97765.00;;;26.58;40.09
62072;BME280;48031;48.542;13.232;2023-06-24T20:08:51;97753.28;;;26.53;40.88
62072;BME280;48031;48.542;13.232;2023-06-24T20:12:53;97760.00;;;26.52;39.76
62072;BME280;48031;48.542;13.232;2023-06-24T20:16:55;97759.28;;;26.42;40.70
62072;BME280;48031;48.542;13.232;2023-06-24T20:20:57;97762.09;;;26.67;41.06
62072;BME280;48031;48.542;13.232;2023-06-24T20:24:59;97760.00;;;26.39;40.40
62072;BME280;48031;48.542;13.232;2023-06-24T20:29:01;97758.66;;;26.13;41.78
62072;BME280;48031;48.542;13.232;2023-06-24T20:33:02;97761.13;;;26.26;40.39
62072;BME280;48031;48.542;13.232;2023-06-24T20:37:05;97760.31;;;25.93;41.08
62072;BME280;48031;48.542;13.232;2023-06-24T20:41:07;97767.03;;;25.80;41.88
62072;BME280;48031;48.542;13.232;2023-06-24T20:45:10;97766.25;;;26.36;41.09
62072;BME280;48031;48.542;13.232;2023-06-24T20:49:12;97761.03;;;26.59;40.99
62072;BME280;48031;48.542;13.232;2023-06-24T20:53:14;97759.09;;;26.02;42.20
62072;BME280;48031;48.542;13.232;2023-06-24T20:57:16;97759.66;;;26.53;40.11
62072;BME280;48031;48.542;13.232;2023-06-24T21:01:18;97751.66;;;26.52;39.99
62072;BME280;48031;48.542;13.232;2023-06-24T21:05:20;97754.19;;;26.32;40.84
62072;BME280;48031;48.542;13.232;2023-06-24T21:09:21;97765.31;;;26.32;39.56
62072;BME280;48031;48.542;13.232;2023-06-24T21:13:24;97772.31;;;25.73;39.78
62072;BME280;48031;48.542;13.232;2023-06-24T21:17:26;97773.94;;;25.74;40.60